This is the latest recevied weather packets stored in our database for station/object VK5KJP. If no packets are shown the sender has not sent any weather packets the latest 10 day(s).
| Time | Temp. | Humidity | Pressure | Rain* | Wind** | Luminosity | Snow |
|---|---|---|---|---|---|---|---|
| 1777645546 | 20.56° C | 53% | 1011.9 hPa | 0 mm | - | - | - |
| 1777644349 | 20.56° C | 51% | 1012.2 hPa | 0 mm | - | - | - |
| 1777643138 | 21.11° C | 48% | 1012.5 hPa | 0 mm | - | - | - |
| 1777642546 | 21.11° C | 48% | 1012.6 hPa | 0 mm | - | - | - |
| 1777641946 | 21.11° C | 48% | 1012.8 hPa | 0 mm | - | - | - |
| 1777639546 | 21.67° C | 46% | 1013.2 hPa | 0 mm | - | - | - |
| 1777638939 | 21.67° C | 47% | 1013.2 hPa | 0 mm | - | - | - |
| 1777635929 | 21.11° C | 49% | 1013.6 hPa | 0 mm | - | - | - |
| 1777632346 | 21.11° C | 47% | 1014 hPa | 0 mm | - | - | - |
| 1777628146 | 22.78° C | 41% | 1014.3 hPa | 0 mm | - | - | - |
| 1777625146 | 25° C | 35% | 1014.4 hPa | 0 mm | - | - | - |
| 1777622746 | 26.67° C | 32% | 1014.3 hPa | 0 mm | - | - | - |
| 1777621546 | 27.78° C | 30% | 1014.2 hPa | 0 mm | - | - | - |
| 1777617346 | 28.89° C | 28% | 1014.5 hPa | 0 mm | - | - | - |
| 1777614929 | 28.89° C | 29% | 1014.6 hPa | 0 mm | - | - | - |
| 1777611346 | 28.33° C | 30% | 1015 hPa | 0 mm | - | - | - |
| 1777610145 | 29.44° C | 28% | 1015.2 hPa | 0 mm | - | - | - |
| 1777608346 | 28.33° C | 29% | 1015.4 hPa | 0 mm | - | - | - |
| 1777606549 | 28.89° C | 28% | 1015.8 hPa | 0 mm | - | - | - |
| 1777597545 | 26.11° C | 37% | 1018.3 hPa | 0 mm | - | - | - |
| 1777596345 | 25° C | 42% | 1018.5 hPa | 0 mm | - | - | - |
| 1777589145 | 18.89° C | 50% | 1019.1 hPa | 0 mm | - | - | - |
| 1777584339 | 16.11° C | 59% | 1018.7 hPa | 0 mm | - | - | - |
| 1777579565 | 16.67° C | 57% | 1018.5 hPa | 0 mm | - | - | - |
| 1777578319 | 16.67° C | 56% | 1018.4 hPa | 0 mm | - | - | - |
* Rain latest hour (hover to see other rain measurements)
** Current wind speed in m/s (hover to see current wind gust speed)